Time;durP1;ratioP1;P1;durP2;ratioP2;P2;SDS_P1;SDS_P2;PMS_P1;PMS_P2;Temp;Humidity;BMP_temperature;BMP_pressure;BME280_temperature;BME280_humidity;BME280_pressure;Samples;Min_cycle;Max_cycle;Signal;HPM_P1;HPM_P2
2021/10/26 00:01:43;;;;;;;10.35;5.13;;;6.90;97.50;;;;;;6252611;22;20011;-77
2021/10/26 00:04:09;;;;;;;13.00;6.53;;;6.80;97.80;;;;;;6280406;22;20269;-78
2021/10/26 00:06:35;;;;;;;13.90;6.55;;;6.70;97.50;;;;;;6280823;22;20083;-78
2021/10/26 00:09:02;;;;;;;13.52;7.40;;;6.60;97.50;;;;;;6253925;22;20250;-78
2021/10/26 00:11:28;;;;;;;10.63;6.22;;;6.60;97.00;;;;;;6278326;22;20085;-77
2021/10/26 00:13:53;;;;;;;14.63;6.85;;;6.70;97.30;;;;;;6280377;22;20312;-77
2021/10/26 00:16:19;;;;;;;18.70;7.20;;;6.60;97.10;;;;;;6280371;22;20009;-78
2021/10/26 00:18:45;;;;;;;11.02;6.82;;;6.60;97.00;;;;;;6279676;22;20163;-78
2021/10/26 00:21:11;;;;;;;11.75;5.80;;;6.60;96.70;;;;;;6279295;22;20014;-77
2021/10/26 00:23:37;;;;;;;9.80;6.00;;;6.60;97.40;;;;;;6281066;22;20003;-79
2021/10/26 00:26:04;;;;;;;12.68;7.28;;;6.40;97.20;;;;;;6280781;22;20853;-78
2021/10/26 00:28:30;;;;;;;13.70;6.05;;;6.50;95.90;;;;;;6279221;22;20003;-78
2021/10/26 00:30:56;;;;;;;13.32;6.28;;;6.60;96.80;;;;;;6280015;22;20008;-78
2021/10/26 00:33:23;;;;;;;15.15;6.65;;;6.50;96.60;;;;;;6253728;22;20642;-79
2021/10/26 00:35:49;;;;;;;13.50;7.13;;;6.60;96.10;;;;;;6280876;22;20006;-77
2021/10/26 00:38:15;;;;;;;11.70;7.15;;;6.70;97.00;;;;;;6280018;22;20000;-78
2021/10/26 00:40:43;;;;;;;11.60;6.57;;;6.60;96.70;;;;;;6279997;22;20015;-78
2021/10/26 00:43:12;;;;;;;12.60;6.45;;;6.70;96.50;;;;;;6277681;22;20003;-78
2021/10/26 00:45:38;;;;;;;11.23;6.40;;;6.70;96.60;;;;;;6281118;22;20033;-77
2021/10/26 00:48:04;;;;;;;13.68;6.40;;;6.60;96.90;;;;;;6280148;22;20003;-78
2021/10/26 00:50:30;;;;;;;14.02;6.90;;;6.60;96.50;;;;;;6280783;22;20056;-80
2021/10/26 00:52:56;;;;;;;13.57;7.60;;;6.60;96.50;;;;;;6279246;22;20486;-78
2021/10/26 00:55:22;;;;;;;15.52;7.25;;;6.80;95.20;;;;;;6279446;22;20027;-78
2021/10/26 00:57:51;;;;;;;11.82;6.20;;;7.00;95.70;;;;;;6278193;22;20000;-77
2021/10/26 01:00:18;;;;;;;15.93;7.05;;;7.00;96.60;;;;;;6254054;22;20014;-78
2021/10/26 01:02:47;;;;;;;13.20;6.88;;;7.00;96.50;;;;;;6278381;22;20258;-78
2021/10/26 01:05:15;;;;;;;12.23;6.60;;;7.00;96.80;;;;;;6277486;22;20007;-77
2021/10/26 01:07:41;;;;;;;11.20;6.75;;;7.00;96.70;;;;;;6252404;22;20027;-77
2021/10/26 01:10:08;;;;;;;14.98;6.93;;;7.00;96.50;;;;;;6278336;22;20004;-77
2021/10/26 01:12:35;;;;;;;12.10;6.15;;;7.10;96.90;;;;;;6277145;22;20023;-77
2021/10/26 01:15:01;;;;;;;11.20;6.55;;;7.10;96.50;;;;;;6277366;22;20014;-77
2021/10/26 01:17:27;;;;;;;9.82;5.70;;;7.20;96.40;;;;;;6250934;22;20675;-78
2021/10/26 01:19:55;;;;;;;12.43;6.60;;;7.40;96.50;;;;;;6279305;22;20280;-79
2021/10/26 01:22:24;;;;;;;10.43;5.93;;;7.60;97.30;;;;;;6251394;22;20003;-79
2021/10/26 01:24:50;;;;;;;11.07;5.50;;;7.40;98.00;;;;;;6278362;22;20075;-78
2021/10/26 01:27:16;;;;;;;10.02;5.43;;;7.20;98.00;;;;;;6249099;22;20293;-77
2021/10/26 01:29:45;;;;;;;14.88;6.75;;;7.10;97.80;;;;;;6278206;22;20122;-78
2021/10/26 01:32:13;;;;;;;14.65;5.95;;;7.20;97.60;;;;;;6278642;22;20426;-77
2021/10/26 01:34:39;;;;;;;10.40;6.10;;;7.20;97.80;;;;;;6251960;22;20039;-77
2021/10/26 01:37:07;;;;;;;12.35;7.35;;;7.20;98.00;;;;;;6278294;22;20328;-76
2021/10/26 01:39:33;;;;;;;10.80;6.07;;;7.20;97.80;;;;;;6278439;22;20075;-78
2021/10/26 01:42:00;;;;;;;12.80;6.22;;;7.20;97.40;;;;;;6250431;22;20027;-78
2021/10/26 01:44:29;;;;;;;11.85;6.40;;;7.40;97.80;;;;;;6278171;22;20424;-77
2021/10/26 01:46:55;;;;;;;12.15;6.63;;;7.60;97.10;;;;;;6278346;22;19996;-78
2021/10/26 01:49:22;;;;;;;11.00;5.70;;;7.80;97.60;;;;;;6278491;22;20053;-78
2021/10/26 01:51:49;;;;;;;11.65;5.88;;;7.90;98.00;;;;;;6251054;22;20037;-78
2021/10/26 01:54:16;;;;;;;11.00;5.60;;;7.90;98.00;;;;;;6278485;22;20011;-78
2021/10/26 01:56:42;;;;;;;14.35;6.10;;;7.90;98.00;;;;;;6276053;22;20003;-77
2021/10/26 01:59:08;;;;;;;12.35;6.57;;;7.90;98.00;;;;;;6277181;22;20003;-77
2021/10/26 02:01:34;;;;;;;9.80;5.38;;;8.00;98.00;;;;;;6252111;22;20007;-78
2021/10/26 02:04:03;;;;;;;12.52;6.57;;;8.00;98.00;;;;;;6278377;22;20074;-77
2021/10/26 02:06:29;;;;;;;11.10;6.53;;;8.00;98.00;;;;;;6277635;22;20007;-78
2021/10/26 02:08:54;;;;;;;13.48;6.97;;;8.00;98.00;;;;;;6277069;22;19996;-77
2021/10/26 02:11:20;;;;;;;10.77;6.55;;;8.10;98.00;;;;;;6276775;22;20075;-78
2021/10/26 02:13:46;;;;;;;12.80;6.80;;;8.20;98.00;;;;;;6277596;22;20004;-78
2021/10/26 02:16:11;;;;;;;10.50;6.38;;;8.20;98.00;;;;;;6251376;22;20014;-78
2021/10/26 02:18:37;;;;;;;12.77;7.15;;;8.20;98.00;;;;;;6276690;22;20321;-77
2021/10/26 02:21:03;;;;;;;11.73;6.80;;;8.30;98.00;;;;;;6276579;22;20431;-78
2021/10/26 02:23:29;;;;;;;18.40;7.53;;;8.40;98.00;;;;;;6251194;22;20003;-78
2021/10/26 02:25:55;;;;;;;12.65;6.38;;;8.50;98.00;;;;;;6277988;22;20008;-78
2021/10/26 02:28:21;;;;;;;14.65;6.97;;;8.60;98.00;;;;;;6276857;22;20079;-78
2021/10/26 02:30:46;;;;;;;17.42;7.13;;;8.50;98.00;;;;;;6250869;22;20365;-78
2021/10/26 02:33:12;;;;;;;10.38;5.97;;;8.50;98.00;;;;;;6278080;22;20011;-78
2021/10/26 02:35:38;;;;;;;10.75;6.20;;;8.40;98.00;;;;;;6250743;22;20265;-78
2021/10/26 02:38:04;;;;;;;14.20;6.60;;;8.30;98.00;;;;;;6277470;22;20018;-77
2021/10/26 02:40:30;;;;;;;10.40;6.22;;;8.40;98.00;;;;;;6276716;22;20082;-78
2021/10/26 02:42:56;;;;;;;11.57;6.28;;;8.40;98.00;;;;;;6275878;22;20030;-78
2021/10/26 02:45:27;;;;;;;11.90;6.32;;;8.50;98.00;;;;;;6278290;22;20004;-78
2021/10/26 02:47:53;;;;;;;13.00;6.07;;;8.50;98.00;;;;;;6277506;22;19996;-77
2021/10/26 02:50:19;;;;;;;14.18;6.05;;;8.50;98.00;;;;;;6250038;22;20000;-78
2021/10/26 02:52:45;;;;;;;12.45;5.82;;;8.50;98.00;;;;;;6250240;22;20061;-78
2021/10/26 02:55:11;;;;;;;12.07;6.43;;;8.50;98.00;;;;;;6277992;22;20425;-77
2021/10/26 02:57:37;;;;;;;10.65;5.75;;;8.50;98.00;;;;;;6275857;22;20444;-78
2021/10/26 03:00:06;;;;;;;12.52;6.75;;;8.60;98.00;;;;;;6278022;22;20006;-78
2021/10/26 03:02:31;;;;;;;14.70;7.25;;;8.80;98.00;;;;;;6279631;22;19996;-78
2021/10/26 03:04:57;;;;;;;14.55;5.95;;;8.80;98.00;;;;;;6277903;22;19996;-78
2021/10/26 03:07:23;;;;;;;11.73;6.80;;;9.00;98.00;;;;;;6249831;22;20050;-78
2021/10/26 03:09:48;;;;;;;13.43;7.60;;;9.20;98.00;;;;;;6277181;22;20006;-78
2021/10/26 03:12:14;;;;;;;10.18;6.10;;;9.20;98.00;;;;;;6249336;22;20372;-78
2021/10/26 03:14:40;;;;;;;14.63;6.80;;;9.10;98.00;;;;;;6277469;22;20000;-79
2021/10/26 03:17:05;;;;;;;10.80;6.28;;;9.10;98.00;;;;;;6276846;22;19999;-78
2021/10/26 03:19:31;;;;;;;12.38;6.53;;;9.20;98.00;;;;;;6276613;22;20061;-78
2021/10/26 03:21:57;;;;;;;16.42;6.88;;;9.40;98.00;;;;;;6276014;22;20010;-79
2021/10/26 03:24:23;;;;;;;11.57;6.82;;;9.50;98.00;;;;;;6276529;22;20000;-79
2021/10/26 03:26:48;;;;;;;13.60;7.18;;;9.50;98.00;;;;;;6277117;22;20114;-78
2021/10/26 03:29:14;;;;;;;14.10;7.38;;;9.60;98.00;;;;;;6277268;22;20004;-78
2021/10/26 03:31:40;;;;;;;12.90;6.53;;;9.60;98.00;;;;;;6250525;22;20010;-78
2021/10/26 03:34:06;;;;;;;13.23;7.25;;;9.60;98.00;;;;;;6277216;22;20373;-79
2021/10/26 03:36:33;;;;;;;14.70;7.57;;;9.60;98.00;;;;;;6277092;22;20014;-78
2021/10/26 03:38:59;;;;;;;12.88;7.47;;;9.60;98.00;;;;;;6277061;22;20004;-78
2021/10/26 03:41:25;;;;;;;14.02;6.82;;;9.50;98.00;;;;;;6274745;22;20011;-78
2021/10/26 03:43:51;;;;;;;15.25;7.50;;;9.50;98.00;;;;;;6277766;22;19991;-78
2021/10/26 03:46:17;;;;;;;16.50;7.90;;;9.40;98.00;;;;;;6276977;22;20056;-78
2021/10/26 03:48:43;;;;;;;13.90;8.48;;;9.50;98.00;;;;;;6277451;22;20007;-78
2021/10/26 03:51:09;;;;;;;15.10;7.70;;;9.50;98.00;;;;;;6276069;22;20004;-78
2021/10/26 03:53:36;;;;;;;17.67;8.00;;;9.50;98.00;;;;;;6276725;22;20032;-78
2021/10/26 03:56:03;;;;;;;12.63;7.55;;;9.50;98.00;;;;;;6277384;22;20311;-78
2021/10/26 03:58:28;;;;;;;16.05;8.05;;;9.50;98.00;;;;;;6249183;22;20445;-79
2021/10/26 04:00:54;;;;;;;15.75;8.98;;;9.40;98.00;;;;;;6250612;22;20040;-77
2021/10/26 04:03:20;;;;;;;15.52;8.55;;;9.40;98.00;;;;;;6275709;22;20010;-77
2021/10/26 04:05:55;;;;;;;15.95;9.52;;;9.40;98.00;;;;;;6279398;22;19996;-77
2021/10/26 04:08:57;;;;;;;18.05;8.63;;;9.40;98.00;;;;;;6276712;22;20004;-77
2021/10/26 04:11:26;;;;;;;17.58;9.10;;;9.50;98.00;;;;;;6271027;22;20003;-77
2021/10/26 04:13:52;;;;;;;15.48;9.18;;;9.50;98.00;;;;;;6276018;22;20010;-78
2021/10/26 04:16:19;;;;;;;14.65;8.50;;;9.50;98.00;;;;;;6277563;22;20011;-78
2021/10/26 04:18:45;;;;;;;17.63;8.57;;;9.40;98.00;;;;;;6275851;22;20035;-79
2021/10/26 04:21:11;;;;;;;18.25;9.40;;;9.40;98.00;;;;;;6276054;22;20050;-78
2021/10/26 04:23:37;;;;;;;17.63;8.52;;;9.30;98.00;;;;;;6275391;22;20371;-78
2021/10/26 04:26:05;;;;;;;14.75;8.13;;;9.30;98.00;;;;;;6249411;22;20007;-78
2021/10/26 04:28:31;;;;;;;16.23;8.55;;;9.30;98.00;;;;;;6275244;22;19999;-79
2021/10/26 04:31:00;;;;;;;13.90;7.85;;;9.30;98.00;;;;;;6278402;22;20070;-77
2021/10/26 04:33:26;;;;;;;14.38;8.13;;;9.30;98.00;;;;;;6279882;22;20000;-78
2021/10/26 04:35:52;;;;;;;19.25;8.02;;;9.20;98.00;;;;;;6253823;22;20006;-77
2021/10/26 04:38:19;;;;;;;15.60;7.65;;;9.20;98.00;;;;;;6281116;22;20031;-78
2021/10/26 04:40:44;;;;;;;16.13;7.82;;;9.30;98.00;;;;;;6280838;22;20031;-78
2021/10/26 04:43:10;;;;;;;15.57;7.32;;;9.30;98.00;;;;;;6252937;22;20007;-78
2021/10/26 04:45:36;;;;;;;14.60;7.03;;;9.30;98.00;;;;;;6281195;22;20729;-78
2021/10/26 04:48:02;;;;;;;12.32;6.45;;;9.30;98.00;;;;;;6280255;22;20007;-78
2021/10/26 04:50:32;;;;;;;11.30;6.68;;;9.50;98.00;;;;;;6253628;22;20081;-78
2021/10/26 04:52:58;;;;;;;11.77;6.88;;;9.50;98.00;;;;;;6280780;22;20393;-77
2021/10/26 04:55:24;;;;;;;28.48;14.98;;;9.50;98.00;;;;;;6254072;22;20008;-78
2021/10/26 04:57:49;;;;;;;16.17;7.57;;;9.60;98.00;;;;;;6252613;22;20004;-78
2021/10/26 05:00:15;;;;;;;12.70;7.10;;;9.60;98.00;;;;;;6280561;22;20265;-78
2021/10/26 05:02:42;;;;;;;12.07;7.35;;;9.70;98.00;;;;;;6279607;22;20003;-78
2021/10/26 05:05:09;;;;;;;12.60;6.53;;;9.70;98.00;;;;;;6280653;22;20007;-77
2021/10/26 05:07:34;;;;;;;14.63;7.75;;;9.70;98.00;;;;;;6280250;22;19996;-78
2021/10/26 05:10:01;;;;;;;17.63;7.55;;;9.60;98.00;;;;;;6280721;22;20008;-77
2021/10/26 05:12:27;;;;;;;12.57;7.07;;;9.60;98.00;;;;;;6279105;22;19999;-77
2021/10/26 05:14:52;;;;;;;14.95;7.60;;;9.60;98.00;;;;;;6253339;22;20369;-78
2021/10/26 05:17:21;;;;;;;15.43;7.63;;;9.60;98.00;;;;;;6280452;22;20046;-78
2021/10/26 05:19:49;;;;;;;14.85;7.13;;;9.60;98.00;;;;;;6281002;22;20034;-78
2021/10/26 05:22:18;;;;;;;12.05;6.88;;;9.60;98.00;;;;;;6281096;22;20027;-79
2021/10/26 05:24:44;;;;;;;11.13;6.50;;;9.70;98.00;;;;;;6280573;22;20070;-78
2021/10/26 05:27:10;;;;;;;12.95;6.15;;;9.70;98.00;;;;;;6279661;22;20028;-78
2021/10/26 05:29:39;;;;;;;12.48;6.03;;;9.70;98.00;;;;;;6280844;22;19996;-78
2021/10/26 05:32:06;;;;;;;14.40;7.75;;;9.70;98.00;;;;;;6280919;22;20003;-78
2021/10/26 05:34:32;;;;;;;14.05;6.90;;;9.70;98.00;;;;;;6280810;22;20003;-79
2021/10/26 05:36:58;;;;;;;11.95;6.20;;;9.70;98.00;;;;;;6280791;22;19999;-78
2021/10/26 05:39:24;;;;;;;12.07;5.95;;;9.70;98.00;;;;;;6280807;22;20061;-78
2021/10/26 05:41:50;;;;;;;12.60;6.10;;;9.70;98.00;;;;;;6279342;22;20416;-78
2021/10/26 05:44:15;;;;;;;12.43;5.68;;;9.70;98.00;;;;;;6253041;22;20377;-78
2021/10/26 05:46:41;;;;;;;14.23;6.65;;;9.70;98.00;;;;;;6280784;22;20003;-78
2021/10/26 05:49:07;;;;;;;11.57;5.80;;;9.70;98.00;;;;;;6280750;22;20380;-78
2021/10/26 05:51:32;;;;;;;12.85;6.10;;;9.70;98.00;;;;;;6280989;22;20000;-78
2021/10/26 05:53:58;;;;;;;13.45;6.72;;;9.70;98.00;;;;;;6253543;22;20008;-78
2021/10/26 05:56:24;;;;;;;11.98;6.30;;;9.70;98.00;;;;;;6278826;22;20361;-78
2021/10/26 05:58:53;;;;;;;14.20;6.75;;;9.80;98.00;;;;;;6280672;22;20000;-78
2021/10/26 06:01:21;;;;;;;15.52;7.03;;;9.80;98.00;;;;;;6280410;22;20004;-78
2021/10/26 06:03:47;;;;;;;16.48;6.43;;;9.80;98.00;;;;;;6280566;22;19996;-78
2021/10/26 06:06:12;;;;;;;9.13;4.70;;;9.80;98.00;;;;;;6253668;22;20057;-78
2021/10/26 06:08:41;;;;;;;11.15;5.05;;;9.80;98.00;;;;;;6253396;22;20384;-78
2021/10/26 06:11:10;;;;;;;11.18;5.35;;;9.90;98.00;;;;;;6280775;22;20031;-79
2021/10/26 06:13:40;;;;;;;8.70;5.22;;;9.90;98.00;;;;;;6279109;22;20003;-78
2021/10/26 06:16:05;;;;;;;13.82;5.57;;;9.90;98.00;;;;;;6280563;22;20010;-79
2021/10/26 06:18:31;;;;;;;15.48;5.00;;;9.90;98.00;;;;;;6280296;22;20015;-78
2021/10/26 06:20:57;;;;;;;11.52;5.20;;;9.90;98.00;;;;;;6280337;22;20034;-78
2021/10/26 06:23:23;;;;;;;13.85;5.70;;;9.90;98.00;;;;;;6280669;22;20309;-78
2021/10/26 06:25:49;;;;;;;9.85;4.68;;;9.90;98.00;;;;;;6280191;22;20010;-78
2021/10/26 06:28:19;;;;;;;10.88;5.28;;;9.90;98.00;;;;;;6251777;22;20027;-78
2021/10/26 06:30:47;;;;;;;10.32;4.88;;;9.90;98.00;;;;;;6280254;22;20057;-78
2021/10/26 06:33:13;;;;;;;10.95;5.20;;;9.90;98.00;;;;;;6280367;22;20010;-78
2021/10/26 06:35:39;;;;;;;9.80;5.03;;;10.00;98.00;;;;;;6280356;22;20003;-78
2021/10/26 06:38:04;;;;;;;11.57;5.22;;;10.00;98.00;;;;;;6280276;22;20322;-78
2021/10/26 06:40:30;;;;;;;11.40;4.97;;;10.10;98.00;;;;;;6279680;22;20008;-78
2021/10/26 06:42:57;;;;;;;11.85;5.40;;;10.10;98.00;;;;;;6278789;22;19999;-77
2021/10/26 06:45:23;;;;;;;12.05;5.20;;;10.10;98.00;;;;;;6279954;22;20003;-78
2021/10/26 06:47:49;;;;;;;13.43;5.63;;;10.10;98.00;;;;;;6253353;22;20079;-78
2021/10/26 06:50:14;;;;;;;13.95;7.18;;;10.10;98.00;;;;;;6280217;22;20008;-77
2021/10/26 06:52:41;;;;;;;12.70;5.35;;;10.10;98.00;;;;;;6280322;22;20079;-78
2021/10/26 06:55:07;;;;;;;9.57;4.95;;;10.10;98.00;;;;;;6279640;22;20074;-78
2021/10/26 06:57:34;;;;;;;13.73;5.97;;;10.20;98.00;;;;;;6278573;22;20015;-78
2021/10/26 07:00:00;;;;;;;10.63;5.75;;;10.20;98.00;;;;;;6252923;22;20430;-77
2021/10/26 07:02:26;;;;;;;12.07;5.22;;;10.30;98.00;;;;;;6280184;22;20067;-77
2021/10/26 07:04:53;;;;;;;10.02;4.45;;;10.40;98.00;;;;;;6279898;22;20085;-77
2021/10/26 07:07:19;;;;;;;9.77;4.35;;;10.50;98.00;;;;;;6280370;22;20004;-78
2021/10/26 07:09:48;;;;;;;10.95;4.40;;;10.50;98.00;;;;;;6279775;22;20031;-77
2021/10/26 07:12:13;;;;;;;9.15;4.03;;;10.50;98.00;;;;;;6278623;22;20384;-78
2021/10/26 07:14:39;;;;;;;10.82;4.57;;;10.60;98.00;;;;;;6279842;22;19996;-78
2021/10/26 07:17:05;;;;;;;8.82;4.20;;;10.60;98.00;;;;;;6252944;22;20095;-78
2021/10/26 07:19:30;;;;;;;13.88;4.85;;;10.60;98.00;;;;;;6253537;22;20031;-79
2021/10/26 07:21:56;;;;;;;10.57;3.83;;;10.50;98.00;;;;;;6279851;22;20522;-78
2021/10/26 07:24:22;;;;;;;10.30;4.00;;;10.60;98.00;;;;;;6279787;22;20007;-78
2021/10/26 07:26:49;;;;;;;8.73;3.95;;;10.60;98.00;;;;;;6278221;22;20003;-78
2021/10/26 07:29:14;;;;;;;9.82;3.92;;;10.70;98.00;;;;;;6252833;22;20008;-77
2021/10/26 07:31:40;;;;;;;9.40;4.28;;;10.80;98.00;;;;;;6279768;22;19999;-78
2021/10/26 07:34:06;;;;;;;11.48;4.50;;;10.90;98.00;;;;;;6279751;22;20048;-79
2021/10/26 07:36:42;;;;;;;10.82;4.43;;;10.90;98.00;;;;;;6279784;22;20004;-78
2021/10/26 07:39:20;;;;;;;11.43;4.15;;;11.10;98.00;;;;;;6279573;22;20363;-78
2021/10/26 07:41:46;;;;;;;10.55;3.95;;;11.10;98.00;;;;;;6278126;22;20008;-78
2021/10/26 07:44:12;;;;;;;11.43;4.22;;;11.10;98.00;;;;;;6279457;22;20091;-78
2021/10/26 07:46:37;;;;;;;9.48;4.03;;;11.20;97.80;;;;;;6252928;22;20003;-78
2021/10/26 07:49:06;;;;;;;7.88;3.55;;;11.40;97.50;;;;;;6279861;22;20003;-78
2021/10/26 07:51:33;;;;;;;6.88;3.30;;;11.60;96.90;;;;;;6279831;22;20007;-78
2021/10/26 07:53:59;;;;;;;7.28;3.38;;;12.00;95.60;;;;;;6279704;22;20011;-78
2021/10/26 07:56:25;;;;;;;6.53;3.13;;;12.20;94.70;;;;;;6278249;22;20008;-78
2021/10/26 07:58:50;;;;;;;8.30;3.30;;;12.30;94.70;;;;;;6279665;22;19996;-78
2021/10/26 08:01:16;;;;;;;8.75;3.72;;;12.20;94.40;;;;;;6252856;22;20072;-78
2021/10/26 08:03:42;;;;;;;10.88;4.28;;;11.90;95.40;;;;;;6252950;22;20265;-78
2021/10/26 08:06:08;;;;;;;9.75;4.05;;;11.90;96.30;;;;;;6279813;22;20373;-78
2021/10/26 08:08:34;;;;;;;7.97;3.85;;;11.90;96.40;;;;;;6281980;22;20007;-78
2021/10/26 08:11:02;;;;;;;8.93;3.65;;;12.00;96.00;;;;;;6281792;22;20007;-78
2021/10/26 08:13:28;;;;;;;9.13;4.05;;;12.20;95.60;;;;;;6227557;22;20304;-78
2021/10/26 08:15:53;;;;;;;10.77;4.30;;;12.10;95.40;;;;;;6251207;23;20032;-78
2021/10/26 08:18:19;;;;;;;14.00;4.88;;;12.00;95.80;;;;;;6251221;23;20383;-78
2021/10/26 08:20:48;;;;;;;12.32;4.70;;;12.00;96.10;;;;;;6224374;23;20373;-80
2021/10/26 08:23:14;;;;;;;11.10;4.43;;;12.20;96.10;;;;;;6250934;23;20000;-79
2021/10/26 08:25:42;;;;;;;16.70;6.68;;;12.30;95.60;;;;;;6251127;23;19997;-78
2021/10/26 08:28:14;;;;;;;10.02;4.80;;;12.60;94.90;;;;;;6249273;23;20034;-77
2021/10/26 08:35:59;;;;;;;9.35;4.32;;;12.50;94.60;;;;;;6260550;23;20012;-78
2021/10/26 08:38:24;;;;;;;11.00;4.65;;;12.50;95.20;;;;;;6250718;23;20292;-78
2021/10/26 08:40:50;;;;;;;13.73;4.97;;;12.70;94.60;;;;;;6250100;23;20007;-77
2021/10/26 08:43:25;;;;;;;12.40;5.25;;;12.80;94.30;;;;;;6249180;23;20384;-77
2021/10/26 08:45:53;;;;;;;13.27;4.57;;;12.90;94.40;;;;;;6250388;23;19996;-78
2021/10/26 08:48:24;;;;;;;10.40;4.68;;;12.80;93.60;;;;;;6223941;23;20000;-78
2021/10/26 08:50:53;;;;;;;8.77;4.20;;;12.60;93.80;;;;;;6250696;23;20072;-77
2021/10/26 08:53:20;;;;;;;8.80;4.32;;;12.60;93.90;;;;;;6250646;23;20003;-78
2021/10/26 08:55:55;;;;;;;12.02;4.53;;;12.60;93.80;;;;;;6250621;23;20377;-78
2021/10/26 08:58:24;;;;;;;12.30;4.82;;;12.80;94.30;;;;;;6248756;23;20309;-78
2021/10/26 09:00:50;;;;;;;9.80;4.85;;;13.10;92.80;;;;;;6250427;23;20004;-78
2021/10/26 09:03:25;;;;;;;11.18;4.75;;;13.20;92.80;;;;;;6224032;23;20079;-78
2021/10/26 09:05:52;;;;;;;9.23;4.28;;;13.40;92.70;;;;;;6224000;23;20316;-78
2021/10/26 09:08:22;;;;;;;10.40;4.70;;;13.30;91.20;;;;;;6250380;23;20373;-78
2021/10/26 09:10:50;;;;;;;11.23;3.92;;;13.00;92.40;;;;;;6250460;23;20376;-78
2021/10/26 09:16:50;;;;;;;9.57;3.85;;;13.30;91.50;;;;;;6250567;23;20086;-78
2021/10/26 09:19:17;;;;;;;10.05;4.05;;;13.20;92.00;;;;;;6249665;23;20007;-78
2021/10/26 09:21:45;;;;;;;10.40;4.25;;;13.30;92.10;;;;;;6250247;23;20000;-78
2021/10/26 09:24:13;;;;;;;9.38;2.90;;;14.40;89.90;;;;;;6250434;23;20369;-78
2021/10/26 09:27:04;;;;;;;7.32;3.22;;;16.00;85.60;;;;;;6222288;23;20310;-78
2021/10/26 09:29:29;;;;;;;8.98;2.53;;;17.40;81.00;;;;;;6250069;23;20307;-79
2021/10/26 09:32:05;;;;;;;9.45;2.70;;;17.20;79.70;;;;;;6250244;23;20000;-78
2021/10/26 09:34:39;;;;;;;8.05;3.03;;;17.10;80.40;;;;;;6250319;23;20311;-78
2021/10/26 09:37:05;;;;;;;;;;;17.20;79.90;;;;;;6224248;23;20012;-78
2021/10/26 09:39:31;;;;;;;8.23;3.22;;;17.10;79.90;;;;;;6223548;23;19899;-78
2021/10/26 09:42:03;;;;;;;5.40;2.63;;;16.50;80.60;;;;;;6248362;23;19996;-78
2021/10/26 09:44:32;;;;;;;8.75;3.38;;;16.10;82.40;;;;;;6223542;23;20001;-78
2021/10/26 09:47:03;;;;;;;7.03;3.60;;;15.30;83.60;;;;;;6223659;23;20019;-79
2021/10/26 09:49:37;;;;;;;10.88;4.50;;;14.60;85.80;;;;;;6223538;23;20083;-78
2021/10/26 09:52:11;;;;;;;9.15;4.00;;;14.30;87.50;;;;;;6223400;23;20004;-78
2021/10/26 09:54:39;;;;;;;11.02;4.78;;;14.20;87.50;;;;;;6223438;23;20012;-78
2021/10/26 09:57:11;;;;;;;9.60;3.83;;;14.40;88.70;;;;;;6221933;23;20268;-78
2021/10/26 09:59:44;;;;;;;7.47;3.75;;;15.60;86.10;;;;;;6223530;23;20091;-78
2021/10/26 10:02:09;;;;;;;8.30;3.88;;;16.30;82.30;;;;;;6249726;23;20011;-78
2021/10/26 10:04:35;;;;;;;7.95;4.25;;;17.00;81.80;;;;;;6250023;23;20071;-79
2021/10/26 10:07:01;;;;;;;8.80;3.17;;;17.40;79.70;;;;;;6223403;23;20004;-78
2021/10/26 10:09:28;;;;;;;8.85;3.80;;;17.20;78.70;;;;;;6249596;23;20000;-80
2021/10/26 10:12:06;;;;;;;8.45;3.63;;;16.20;81.20;;;;;;6221598;23;20087;-78
2021/10/26 10:14:38;;;;;;;9.15;3.33;;;16.00;83.80;;;;;;6249930;23;20004;-78
2021/10/26 10:17:07;;;;;;;6.85;2.55;;;16.50;81.10;;;;;;6249512;23;20028;-78
2021/10/26 10:19:34;;;;;;;8.10;3.08;;;16.30;81.10;;;;;;6249246;23;20123;-78
2021/10/26 10:22:04;;;;;;;5.38;2.55;;;16.80;80.90;;;;;;6249520;23;20049;-78
2021/10/26 10:24:37;;;;;;;8.63;2.88;;;17.00;78.90;;;;;;6249691;23;20000;-78
2021/10/26 10:27:07;;;;;;;7.90;2.90;;;16.40;80.00;;;;;;6248540;23;20023;-78
2021/10/26 10:29:38;;;;;;;10.07;3.25;;;15.50;82.50;;;;;;6249599;23;20260;-78
2021/10/26 10:32:05;;;;;;;7.85;3.10;;;15.20;84.20;;;;;;6249479;23;20050;-78
2021/10/26 10:34:32;;;;;;;10.25;3.03;;;14.90;85.20;;;;;;6223066;23;20288;-77
2021/10/26 10:37:00;;;;;;;8.98;4.55;;;14.80;85.80;;;;;;6249624;23;20008;-78
2021/10/26 10:39:34;;;;;;;9.15;4.35;;;14.90;85.30;;;;;;6223119;23;20027;-78
2021/10/26 10:42:22;;;;;;;9.57;4.35;;;14.80;85.50;;;;;;6247800;23;20066;-79
2021/10/26 10:44:51;;;;;;;6.63;3.08;;;14.70;86.40;;;;;;6249515;23;20459;-79
2021/10/26 10:47:41;;;;;;;9.95;4.30;;;14.90;86.20;;;;;;6249675;23;20000;-79
2021/10/26 10:50:36;;;;;;;7.95;3.70;;;15.10;85.50;;;;;;6222971;23;20000;-78
2021/10/26 10:53:19;;;;;;;12.57;4.00;;;14.80;85.70;;;;;;6222549;23;20004;-78
2021/10/26 10:56:17;;;;;;;7.85;3.58;;;14.40;87.10;;;;;;6249742;23;20010;-77
2021/10/26 10:58:44;;;;;;;7.35;4.07;;;14.30;87.40;;;;;;6249359;23;20000;-77
2021/10/26 11:01:20;;;;;;;10.55;5.07;;;14.40;87.50;;;;;;6249296;23;20030;-77
2021/10/26 11:03:46;;;;;;;10.05;3.90;;;14.60;86.40;;;;;;6222914;23;20004;-77
2021/10/26 11:06:41;;;;;;;10.43;3.67;;;14.60;87.10;;;;;;6222733;23;20007;-79
2021/10/26 11:09:28;;;;;;;15.95;7.32;;;14.60;86.80;;;;;;6222638;23;20000;-78
2021/10/26 11:12:16;;;;;;;8.57;3.30;;;14.50;86.90;;;;;;6220778;23;20023;-79
2021/10/26 11:14:55;;;;;;;11.48;3.75;;;14.30;87.30;;;;;;6248855;23;20004;-78
2021/10/26 11:17:33;;;;;;;16.10;9.02;;;14.30;89.10;;;;;;6249281;23;20000;-79
2021/10/26 11:20:00;;;;;;;15.98;9.15;;;14.20;89.50;;;;;;6222471;23;20004;-78
2021/10/26 11:23:03;;;;;;;18.13;4.60;;;14.00;89.20;;;;;;6249024;23;20380;-78
2021/10/26 11:25:34;;;;;;;18.70;8.32;;;13.90;90.00;;;;;;6249187;23;20007;-78
2021/10/26 11:28:11;;;;;;;10.10;4.32;;;14.00;89.90;;;;;;6247494;23;19996;-78
2021/10/26 11:30:59;;;;;;;18.55;7.43;;;14.20;88.90;;;;;;6221862;23;20091;-79
2021/10/26 11:33:24;;;;;;;6.47;3.03;;;14.10;89.10;;;;;;6249373;23;20287;-78
2021/10/26 11:36:08;;;;;;;7.82;3.10;;;14.10;89.10;;;;;;6249097;23;20000;-78
2021/10/26 11:38:44;;;;;;;8.10;3.53;;;14.30;89.10;;;;;;6249298;23;20007;-78
2021/10/26 11:41:30;;;;;;;8.15;2.70;;;14.60;87.40;;;;;;6220138;23;20011;-79
2021/10/26 11:44:05;;;;;;;5.72;2.60;;;15.50;86.20;;;;;;6248930;23;20261;-79
2021/10/26 11:46:38;;;;;;;8.07;2.97;;;15.90;83.00;;;;;;6248997;23;20007;-79
2021/10/26 11:49:17;;;;;;;5.88;2.65;;;16.00;83.00;;;;;;6249125;23;20004;-79
2021/10/26 11:51:49;;;;;;;7.63;2.40;;;16.10;82.60;;;;;;6248799;23;20464;-79
2021/10/26 11:54:18;;;;;;;7.35;2.72;;;15.70;83.30;;;;;;6249156;23;20418;-79
2021/10/26 11:56:52;;;;;;;7.93;2.83;;;15.50;83.90;;;;;;6247764;23;20075;-78
2021/10/26 11:59:25;;;;;;;9.30;2.45;;;15.40;83.20;;;;;;6222512;23;20031;-79
2021/10/26 12:02:03;;;;;;;6.47;2.38;;;15.40;84.00;;;;;;6221696;23;20008;-78
2021/10/26 12:04:35;;;;;;;9.38;2.40;;;15.80;84.10;;;;;;6249063;23;20319;-79
2021/10/26 12:07:09;;;;;;;7.53;2.50;;;15.90;82.30;;;;;;6249105;23;20000;-79
2021/10/26 12:09:49;;;;;;;6.20;2.15;;;15.60;82.80;;;;;;6222413;23;20000;-79
2021/10/26 12:12:20;;;;;;;6.80;1.85;;;15.20;84.20;;;;;;6247307;23;20121;-79
2021/10/26 12:14:47;;;;;;;5.38;2.88;;;14.80;84.90;;;;;;6249023;23;20004;-79
2021/10/26 12:17:22;;;;;;;10.10;2.80;;;14.60;86.10;;;;;;6248918;23;20027;-79
2021/10/26 12:22:44;;;;;;;4.45;1.80;;;14.20;86.40;;;;;;6249201;23;20043;-78
2021/10/26 12:25:25;;;;;;;5.70;2.17;;;14.00;87.10;;;;;;6249041;23;20004;-79
2021/10/26 12:27:52;;;;;;;8.43;2.17;;;13.70;88.40;;;;;;6220572;23;20261;-78
2021/10/26 12:30:18;;;;;;;9.48;2.83;;;13.50;89.20;;;;;;6221936;23;20366;-78
2021/10/26 12:32:58;;;;;;;5.70;2.33;;;13.20;90.50;;;;;;6248987;23;20071;-78
2021/10/26 12:35:25;;;;;;;7.22;2.58;;;13.30;91.10;;;;;;6248717;23;19996;-79
2021/10/26 12:38:15;;;;;;;7.85;2.17;;;13.40;90.70;;;;;;6249016;23;20003;-78
2021/10/26 12:40:46;;;;;;;5.93;2.50;;;13.40;90.70;;;;;;6222073;23;20058;-79
2021/10/26 12:43:16;;;;;;;7.20;2.30;;;13.30;91.10;;;;;;6220764;23;20364;-77
2021/10/26 12:45:42;;;;;;;8.93;2.10;;;13.30;91.20;;;;;;6248724;23;20075;-77
2021/10/26 12:48:12;;;;;;;4.95;2.13;;;13.40;91.70;;;;;;6248814;23;20027;-77
2021/10/26 12:50:45;;;;;;;6.50;1.85;;;13.60;90.10;;;;;;6222053;23;20008;-77
2021/10/26 12:53:11;;;;;;;5.90;2.00;;;13.70;89.40;;;;;;6249156;23;20392;-78
2021/10/26 12:55:39;;;;;;;5.57;1.98;;;13.90;89.20;;;;;;6250713;23;20006;-77
2021/10/26 12:58:04;;;;;;;5.38;1.92;;;14.10;88.60;;;;;;6249156;23;20004;-78
2021/10/26 13:00:30;;;;;;;4.50;2.00;;;14.30;87.60;;;;;;6250182;23;20097;-78
2021/10/26 13:03:10;;;;;;;7.30;2.22;;;14.40;86.80;;;;;;6250107;23;20007;-78
2021/10/26 13:05:55;;;;;;;6.72;2.17;;;14.40;87.50;;;;;;6250254;23;20130;-77